• Join FlightAware (Why Join?)
  • Login
  • US Flag 
04:03PM EDT


 

Airport Tracker/Info


-or-


 

Live Flight TrackerFlight Track Log ✈ TAM3242 ✈ 24-Jun-2013 ✈ SBSP / CGH - SBUL / UDI

Flight Track Log - Related Links

Times and Time Zones

All times are in EDT time to prevent confusion due to time zone crossing. See the TAM3242 flight status page for this flight to view local times or setup timezone preferences in your user account.

Time Position Orientation Groundspeed Altitude Reporting Facility
EDT Latitude Longitude Course Direction KTS MPH feet Rate Location/Type
07:02AM -20.7701 -47.6135 343° North  Level Estimated
07:03AM -20.6948 -47.6382 343° North  Level Estimated
07:04AM -20.6196 -47.6629 343° North  Level Estimated
07:05AM -20.5443 -47.6875 343° North  Level Estimated
07:06AM -20.4691 -47.7121 343° North  Level Estimated
07:07AM -20.3938 -47.7368 343° North  Level Estimated
07:08AM -20.3186 -47.7613 343° North  Level Estimated
07:09AM -20.2433 -47.7859 343° North  Level Estimated
07:10AM -20.1680 -47.8104 343° North  Level Estimated
07:11AM -20.0928 -47.8349 343° North  Level Estimated
07:12AM -20.0175 -47.8594 343° North  Level Estimated
07:13AM -19.9422 -47.8839 343° North  Level Estimated
07:14AM -19.8669 -47.9083 343° North  Level Estimated
07:15AM -19.7916 -47.9327 343° North  Level Estimated
07:16AM -19.7163 -47.9571 343° North  Level Estimated
07:17AM -19.6410 -47.9815 343° North  Level Estimated
07:18AM -19.5657 -48.0059 343° North  Level Estimated
07:19AM -19.4904 -48.0302 343° North  Level Estimated
07:20AM -19.3956 -48.0608 343° North  Level Estimated
07:21AM -19.3007 -48.0914 343° North  Level Estimated
07:22AM -19.2058 -48.1219 343° North  Level Estimated
07:23AM -19.1109 -48.1524 343° North  Level Estimated
07:24AM -19.0160 -48.1829 343° North  Level Estimated
07:25AM -18.9211 -48.2133 343° North  Level Estimated
07:26AM -18.8828 -48.2256 343° North  Level Estimated
07:27AM -18.8828 -48.2256 223° Southwest  Level Estimated
07:28AM -18.8828 -48.2256 223° Southwest  Level Estimated
07:29AM -18.8828 -48.2256 223° Southwest  Level Estimated
07:30AM -18.8828 -48.2256 223° Southwest  Level Estimated